Time;durP1;ratioP1;P1;durP2;ratioP2;P2;SDS_P1;SDS_P2;PMS_P1;PMS_P2;Temp;Humidity;BMP_temperature;BMP_pressure;BME280_temperature;BME280_humidity;BME280_pressure;Samples;Min_cycle;Max_cycle;Signal;HPM_P1;HPM_P2
2021/06/03 00:00:30;;;;;;;2.37;1.22;;;;;;;10.31;68.30;98280.21;1743884;81;20979;-72
2021/06/03 00:02:59;;;;;;;2.10;1.40;;;;;;;10.34;68.63;98283.83;1761747;81;21460;-70
2021/06/03 00:05:33;;;;;;;1.85;1.47;;;;;;;10.37;67.83;98283.56;1694854;84;21498;-70
2021/06/03 00:08:00;;;;;;;3.12;1.47;;;;;;;10.42;69.62;98283.98;1761503;81;21562;-70
2021/06/03 00:10:30;;;;;;;2.30;1.40;;;;;;;10.45;68.42;98282.41;1694814;85;21517;-70
2021/06/03 00:12:58;;;;;;;2.50;1.65;;;;;;;10.40;71.09;98278.09;1761885;81;21042;-70
2021/06/03 00:15:25;;;;;;;1.57;1.22;;;;;;;10.40;70.88;98274.20;1694667;85;21542;-70
2021/06/03 00:17:52;;;;;;;2.30;1.50;;;;;;;10.46;69.53;98274.50;1761718;81;21086;-66
2021/06/03 00:20:24;;;;;;;2.58;1.42;;;;;;;10.51;69.57;98275.84;1694321;85;21045;-70
2021/06/03 00:22:52;;;;;;;4.22;1.50;;;;;;;10.52;70.67;98285.28;1761975;81;21507;-67
2021/06/03 00:25:19;;;;;;;2.85;1.37;;;;;;;10.51;69.91;98282.34;1762131;81;21039;-67
2021/06/03 00:27:47;;;;;;;2.55;1.17;;;;;;;10.44;71.11;98292.45;1709754;83;21074;-71
2021/06/03 00:30:15;;;;;;;1.80;1.00;;;;;;;10.52;70.49;98285.28;1717036;83;21031;-71
2021/06/03 00:32:42;;;;;;;0.90;0.80;;;;;;;10.59;70.29;98287.69;1717662;83;21103;-67
2021/06/03 00:35:10;;;;;;;1.70;1.02;;;;;;;10.64;69.47;98286.34;1717527;83;21042;-71
2021/06/03 00:37:38;;;;;;;2.50;1.40;;;;;;;10.70;69.54;98284.48;1717516;83;21054;-68
2021/06/03 00:40:09;;;;;;;3.47;1.15;;;;;;;10.71;69.72;98289.20;1717698;83;21046;-67
2021/06/03 00:42:36;;;;;;;1.52;0.95;;;;;;;10.66;69.97;98290.91;1717494;83;21097;-70
2021/06/03 00:45:06;;;;;;;1.40;0.90;;;;;;;10.61;70.32;98287.09;1717139;83;21094;-70
2021/06/03 00:47:33;;;;;;;1.47;0.95;;;;;;;10.64;69.75;98290.23;1717299;83;21090;-71
2021/06/03 00:50:00;;;;;;;2.25;1.15;;;;;;;10.64;69.27;98281.14;1717574;83;21117;-70
2021/06/03 00:52:27;;;;;;;1.25;0.95;;;;;;;10.61;69.37;98273.63;1717440;83;21042;-67
2021/06/03 00:55:00;;;;;;;2.15;1.15;;;;;;;10.60;68.91;98278.47;1717474;83;21010;-67
2021/06/03 00:57:27;;;;;;;1.07;0.95;;;;;;;10.58;69.62;98277.80;1717340;83;21494;-67
2021/06/03 00:59:54;;;;;;;0.93;0.82;;;;;;;10.58;69.01;98279.57;1717233;83;21141;-67
2021/06/03 01:02:21;;;;;;;1.12;0.82;;;;;;;10.55;69.83;98276.75;1717424;83;21034;-67
2021/06/03 01:04:48;;;;;;;1.60;0.88;;;;;;;10.54;69.64;98276.42;1717269;83;21129;-70
2021/06/03 01:07:15;;;;;;;2.40;1.20;;;;;;;10.58;68.82;98291.26;1717500;83;21014;-70
2021/06/03 01:09:53;;;;;;;1.57;1.05;;;;;;;10.56;69.04;98291.38;1717437;83;21081;-66
2021/06/03 01:12:25;;;;;;;1.52;1.22;;;;;;;10.55;69.16;98296.70;1716817;83;21049;-67
2021/06/03 01:14:56;;;;;;;1.55;1.27;;;;;;;10.53;69.38;98294.73;1714103;83;21089;-67
2021/06/03 01:17:25;;;;;;;1.77;0.85;;;;;;;10.47;69.62;98299.49;1717485;83;21027;-69
2021/06/03 01:19:53;;;;;;;2.27;1.00;;;;;;;10.52;69.16;98301.69;1717448;83;21097;-70
2021/06/03 01:22:29;;;;;;;1.70;1.50;;;;;;;10.51;69.70;98305.23;1684502;83;21058;-70
2021/06/03 01:24:58;;;;;;;1.70;1.35;;;;;;;10.57;69.02;98306.48;1715259;83;21106;-70
2021/06/03 01:27:31;;;;;;;2.47;1.15;;;;;;;10.56;69.63;98307.44;1717441;83;21046;-68
2021/06/03 01:30:11;;;;;;;1.40;1.00;;;;;;;10.43;69.96;98302.01;1717067;83;21006;-70
2021/06/03 01:32:46;;;;;;;2.00;1.27;;;;;;;10.32;70.67;98307.79;1717573;83;21034;-67
2021/06/03 01:35:18;;;;;;;2.52;1.22;;;;;;;10.28;70.56;98312.42;1717034;83;21487;-67
2021/06/03 01:37:49;;;;;;;1.30;1.20;;;;;;;10.21;70.76;98304.00;1716951;83;21002;-66
2021/06/03 01:40:17;;;;;;;1.87;1.02;;;;;;;10.22;70.38;98305.66;1717443;83;21018;-70
2021/06/03 01:42:46;;;;;;;1.30;0.98;;;;;;;10.23;70.33;98306.00;1717556;83;21077;-70
2021/06/03 01:45:16;;;;;;;2.22;1.30;;;;;;;10.19;70.88;98305.92;1717422;83;21045;-67
2021/06/03 01:47:47;;;;;;;1.70;1.37;;;;;;;10.14;71.03;98305.45;1717735;83;21006;-71
2021/06/03 01:50:16;;;;;;;0.82;0.80;;;;;;;10.10;71.28;98304.90;1717720;83;21046;-67
2021/06/03 01:52:46;;;;;;;1.67;1.27;;;;;;;10.13;71.34;98307.70;1691154;83;21128;-70
2021/06/03 01:55:14;;;;;;;2.37;1.27;;;;;;;10.18;70.29;98301.67;1717423;83;21066;-71
2021/06/03 01:57:42;;;;;;;1.75;1.20;;;;;;;10.17;71.01;98304.74;1717367;83;21054;-71
2021/06/03 02:00:17;;;;;;;1.15;0.90;;;;;;;10.21;70.17;98308.72;1716190;83;21121;-67
2021/06/03 02:02:47;;;;;;;1.80;1.25;;;;;;;10.15;71.05;98304.07;1717564;83;21069;-68
2021/06/03 02:05:17;;;;;;;1.65;1.00;;;;;;;10.18;70.33;98304.27;1717732;83;21089;-70
2021/06/03 02:07:44;;;;;;;2.70;0.98;;;;;;;10.21;69.87;98307.89;1717460;83;21014;-72
2021/06/03 02:10:16;;;;;;;1.67;1.10;;;;;;;10.24;69.65;98312.34;1717339;83;21078;-68
2021/06/03 02:13:07;;;;;;;1.62;1.02;;;;;;;10.27;69.35;98313.88;1717333;83;21077;-67
2021/06/03 02:15:40;;;;;;;1.60;1.10;;;;;;;10.29;69.83;98309.36;1717522;83;21026;-66
2021/06/03 02:18:11;;;;;;;2.10;1.20;;;;;;;10.27;69.73;98317.77;1717515;83;21018;-69
2021/06/03 02:20:42;;;;;;;3.90;1.57;;;;;;;10.28;69.62;98320.69;1717932;83;21510;-69
2021/06/03 02:23:13;;;;;;;2.08;1.15;;;;;;;10.26;69.83;98314.34;1717503;83;21143;-69
2021/06/03 02:25:41;;;;;;;1.90;1.27;;;;;;;10.28;70.09;98312.89;1691531;83;21018;-71
2021/06/03 02:28:11;;;;;;;3.12;1.17;;;;;;;10.30;69.27;98317.02;1705856;83;21066;-69
2021/06/03 02:30:39;;;;;;;4.40;1.32;;;;;;;10.32;69.15;98318.17;1728306;83;21064;-66
2021/06/03 02:33:06;;;;;;;2.95;1.35;;;;;;;10.32;69.83;98320.77;1728320;83;21085;-67
2021/06/03 02:35:34;;;;;;;3.87;1.35;;;;;;;10.33;68.72;98318.52;1728090;83;21042;-70
2021/06/03 02:38:01;;;;;;;1.75;1.00;;;;;;;10.34;69.41;98318.88;1728232;83;21045;-68
2021/06/03 02:40:31;;;;;;;2.90;1.10;;;;;;;10.34;68.75;98313.69;1728213;83;21093;-70
2021/06/03 02:42:59;;;;;;;2.80;1.30;;;;;;;10.35;69.29;98317.93;1728136;83;21073;-70
2021/06/03 02:45:30;;;;;;;1.35;0.85;;;;;;;10.35;69.16;98314.03;1728193;83;20970;-70
2021/06/03 02:47:59;;;;;;;1.45;0.98;;;;;;;10.36;69.04;98308.69;1728160;83;21474;-71
2021/06/03 02:50:28;;;;;;;0.90;0.80;;;;;;;10.35;68.05;98311.44;1728226;83;21475;-70
2021/06/03 02:52:58;;;;;;;2.00;1.42;;;;;;;10.35;68.77;98310.14;1728206;83;21093;-72
2021/06/03 02:55:26;;;;;;;3.27;1.10;;;;;;;10.35;68.70;98313.53;1728186;83;20970;-72
2021/06/03 02:57:55;;;;;;;1.87;1.07;;;;;;;10.36;69.08;98313.06;1728064;83;21133;-72
2021/06/03 03:00:30;;;;;;;4.33;1.10;;;;;;;10.35;68.50;98316.13;1728223;83;21549;-72
2021/06/03 03:02:59;;;;;;;1.98;1.45;;;;;;;10.35;68.36;98314.83;1728103;83;21197;-70
2021/06/03 03:05:27;;;;;;;2.55;0.98;;;;;;;10.35;68.12;98317.42;1728232;83;21538;-69
2021/06/03 03:07:54;;;;;;;1.67;1.25;;;;;;;10.32;69.02;98325.48;1728190;83;21192;-72
2021/06/03 03:10:36;;;;;;;1.47;0.98;;;;;;;10.31;68.98;98327.73;1728191;83;21109;-68
2021/06/03 03:13:06;;;;;;;1.77;1.07;;;;;;;10.29;69.90;98331.42;1728167;83;21160;-72
2021/06/03 03:15:34;;;;;;;1.92;1.05;;;;;;;10.27;69.38;98336.73;1728228;83;21185;-69
2021/06/03 03:18:02;;;;;;;2.92;1.30;;;;;;;10.27;68.94;98334.13;1728111;83;21057;-68
2021/06/03 03:20:30;;;;;;;1.87;1.12;;;;;;;10.28;69.01;98338.86;1727995;83;21502;-66
2021/06/03 03:22:58;;;;;;;3.22;1.30;;;;;;;10.28;69.26;98338.38;1728076;83;21597;-67
2021/06/03 03:25:29;;;;;;;1.25;1.12;;;;;;;10.29;69.21;98341.33;1728146;83;21049;-68
2021/06/03 03:27:57;;;;;;;2.37;1.75;;;;;;;10.31;69.52;98336.02;1726463;83;21058;-72
2021/06/03 03:30:28;;;;;;;2.10;1.20;;;;;;;10.32;69.89;98342.36;1723397;83;21041;-72
2021/06/03 03:32:55;;;;;;;1.32;1.00;;;;;;;10.33;70.25;98347.91;1723542;83;21061;-72
2021/06/03 03:35:23;;;;;;;4.17;1.15;;;;;;;10.36;69.91;98338.55;1694587;85;21052;-73
2021/06/03 03:37:51;;;;;;;6.10;1.37;;;;;;;10.39;70.14;98340.05;1749029;81;21002;-73
2021/06/03 03:40:22;;;;;;;1.90;1.30;;;;;;;10.41;70.24;98343.34;1749083;82;21141;-72
2021/06/03 03:42:50;;;;;;;45.12;19.62;;;;;;;10.45;69.76;98344.73;1748967;81;21033;-71
2021/06/03 03:45:21;;;;;;;93.30;41.92;;;;;;;10.50;69.73;98346.45;1749087;81;21216;-70
2021/06/03 03:47:48;;;;;;;53.23;24.63;;;;;;;10.56;69.54;98355.47;1741012;82;21030;-70
2021/06/03 03:50:17;;;;;;;38.23;18.23;;;;;;;10.60;69.75;98355.08;1749614;82;21061;-72
2021/06/03 03:52:46;;;;;;;52.93;25.43;;;;;;;10.65;69.15;98354.69;1749303;81;21565;-76
2021/06/03 03:55:15;;;;;;;18.98;9.88;;;;;;;10.71;69.03;98352.37;1749104;82;21037;-68
2021/06/03 03:57:43;;;;;;;4.58;3.20;;;;;;;10.76;69.24;98355.39;1748901;82;21026;-68
2021/06/03 04:00:24;;;;;;;3.10;2.25;;;;;;;10.83;69.06;98362.98;1749030;82;21006;-74
2021/06/03 04:02:53;;;;;;;3.65;2.05;;;;;;;10.88;68.89;98360.81;1748773;81;21007;-74
2021/06/03 04:05:22;;;;;;;4.72;2.17;;;;;;;10.96;69.09;98353.64;1749024;81;21600;-75
2021/06/03 04:07:48;;;;;;;3.45;1.70;;;;;;;11.02;69.14;98362.19;1749137;82;21042;-75
2021/06/03 04:10:19;;;;;;;4.37;2.12;;;;;;;11.10;69.04;98363.63;1749227;81;21010;-68
2021/06/03 04:12:48;;;;;;;3.33;1.82;;;;;;;11.16;69.09;98364.40;1749222;81;21038;-68
2021/06/03 04:15:16;;;;;;;2.87;1.52;;;;;;;11.24;68.48;98370.22;1740788;82;21006;-68
2021/06/03 04:17:45;;;;;;;5.05;1.98;;;;;;;11.32;68.20;98364.64;1749079;82;21471;-67
2021/06/03 04:20:20;;;;;;;2.05;1.50;;;;;;;11.39;68.06;98364.47;1749258;81;21038;-74
2021/06/03 04:22:50;;;;;;;2.60;1.50;;;;;;;11.46;68.07;98363.42;1729738;82;21066;-68
2021/06/03 04:25:20;;;;;;;2.67;1.42;;;;;;;11.55;67.65;98361.78;1728756;83;21094;-67
2021/06/03 04:27:47;;;;;;;6.20;1.70;;;;;;;11.65;67.86;98370.37;1728970;82;21070;-67
2021/06/03 04:30:19;;;;;;;2.52;1.70;;;;;;;11.74;67.62;98369.58;1729206;83;21586;-67
2021/06/03 04:32:47;;;;;;;2.85;1.80;;;;;;;11.81;67.13;98376.69;1729465;83;21553;-67
2021/06/03 04:35:19;;;;;;;2.52;1.77;;;;;;;11.89;66.91;98380.70;1729405;83;21114;-67
2021/06/03 04:37:47;;;;;;;7.03;1.57;;;;;;;11.96;66.50;98383.56;1662338;86;21133;-67
2021/06/03 04:40:17;;;;;;;2.85;1.98;;;;;;;12.04;66.59;98388.88;1735626;82;20987;-69
2021/06/03 04:42:45;;;;;;;4.92;1.27;;;;;;;12.14;66.05;98390.17;1662912;86;21124;-67
2021/06/03 04:45:13;;;;;;;2.05;1.70;;;;;;;12.21;64.56;98383.42;1735824;82;21148;-74
2021/06/03 04:47:44;;;;;;;2.45;1.00;;;;;;;12.23;64.48;98382.31;1735816;83;21218;-78
2021/06/03 04:50:14;;;;;;;2.58;1.50;;;;;;;12.17;63.36;98387.27;1663060;85;20998;-71
2021/06/03 04:52:42;;;;;;;1.90;1.10;;;;;;;12.25;63.88;98386.09;1735880;83;21103;-71
2021/06/03 04:55:15;;;;;;;2.35;1.62;;;;;;;12.30;63.49;98388.58;1735799;82;21200;-71
2021/06/03 04:57:43;;;;;;;1.50;0.85;;;;;;;12.45;63.70;98385.02;1736035;83;22433;-74
2021/06/03 05:00:15;;;;;;;2.17;1.52;;;;;;;12.61;63.16;98385.70;1735999;83;21011;-71
2021/06/03 05:02:42;;;;;;;3.83;1.07;;;;;;;12.71;62.85;98382.09;1734976;82;21011;-72
2021/06/03 05:05:11;;;;;;;1.47;0.98;;;;;;;12.90;62.37;98388.15;1663124;86;21098;-74
2021/06/03 05:07:38;;;;;;;2.77;1.05;;;;;;;12.98;62.05;98388.23;1735999;82;21586;-74
2021/06/03 05:10:07;;;;;;;2.47;1.30;;;;;;;13.11;61.27;98385.63;1662847;85;21078;-74
2021/06/03 05:12:35;;;;;;;1.82;1.25;;;;;;;13.27;61.87;98383.66;1735788;82;21049;-74
2021/06/03 05:15:04;;;;;;;1.80;1.22;;;;;;;13.42;60.82;98378.27;1735805;83;20964;-74
2021/06/03 05:17:31;;;;;;;1.75;1.10;;;;;;;13.45;59.47;98382.36;1735792;83;21007;-72
2021/06/03 05:19:59;;;;;;;2.08;1.05;;;;;;;13.61;59.64;98385.93;1735705;83;21038;-71
2021/06/03 05:22:26;;;;;;;1.98;1.20;;;;;;;13.66;58.66;98386.27;1735433;83;21506;-74
2021/06/03 05:24:54;;;;;;;4.05;1.40;;;;;;;13.83;59.21;98387.22;1674154;85;21042;-74
2021/06/03 05:27:20;;;;;;;2.20;1.27;;;;;;;13.94;59.23;98376.52;1706581;84;21105;-74
2021/06/03 05:29:47;;;;;;;1.85;1.12;;;;;;;13.98;57.76;98382.25;1713391;84;21047;-75
2021/06/03 05:32:16;;;;;;;2.52;1.42;;;;;;;14.00;58.49;98390.28;1749676;82;21026;-74
2021/06/03 05:34:42;;;;;;;2.12;1.10;;;;;;;14.16;58.63;98381.73;1749687;82;21108;-74
2021/06/03 05:37:09;;;;;;;1.47;1.20;;;;;;;14.33;58.35;98382.12;1749751;82;21024;-72
2021/06/03 05:39:36;;;;;;;1.77;1.22;;;;;;;14.46;57.47;98384.34;1749940;82;21156;-72
2021/06/03 05:42:04;;;;;;;2.70;1.17;;;;;;;14.40;57.20;98380.55;1749821;82;21065;-72
2021/06/03 05:44:32;;;;;;;3.15;1.22;;;;;;;14.59;57.60;98378.20;1749682;81;21077;-74
2021/06/03 05:46:59;;;;;;;17.27;1.42;;;;;;;14.73;57.28;98382.82;1750114;82;21025;-74
2021/06/03 05:49:28;;;;;;;3.30;1.35;;;;;;;14.76;56.49;98385.11;1749722;82;21149;-72
2021/06/03 05:51:55;;;;;;;1.65;1.40;;;;;;;14.85;56.32;98383.34;1749990;82;21521;-74
2021/06/03 05:54:22;;;;;;;2.45;1.05;;;;;;;14.84;56.17;98381.70;1749922;82;22784;-74
2021/06/03 05:56:49;;;;;;;2.33;1.20;;;;;;;15.02;56.99;98388.93;1749980;82;21022;-75
2021/06/03 05:59:16;;;;;;;2.58;1.40;;;;;;;14.98;55.89;98387.64;1750070;82;21006;-74
2021/06/03 06:01:43;;;;;;;2.15;1.22;;;;;;;15.03;54.83;98382.73;1749876;82;21104;-75
2021/06/03 06:05:55;;;;;;;2.45;1.10;;;;;;;15.06;54.54;98380.61;1749705;82;21130;-74
2021/06/03 06:06:38;;;;;;;3.37;1.00;;;;;;;15.09;53.96;98384.23;1748743;82;21089;-74
2021/06/03 06:09:11;;;;;;;3.47;1.10;;;;;;;15.24;54.67;98378.36;1750014;82;21133;-72
2021/06/03 06:11:39;;;;;;;2.67;0.88;;;;;;;15.24;54.14;98383.59;1750129;81;21114;-74
2021/06/03 06:14:07;;;;;;;1.45;1.00;;;;;;;15.49;54.22;98387.84;1750157;82;21037;-72
2021/06/03 06:16:37;;;;;;;1.20;0.82;;;;;;;15.56;53.21;98385.75;1750007;82;21089;-72
2021/06/03 06:19:06;;;;;;;3.05;1.00;;;;;;;15.74;51.71;98381.67;1749930;82;21014;-74
2021/06/03 06:21:35;;;;;;;0.88;0.75;;;;;;;15.92;49.78;98380.16;1750131;81;21096;-72
2021/06/03 06:24:04;;;;;;;2.67;0.88;;;;;;;16.09;51.33;98386.53;1750299;81;21077;-72
2021/06/03 06:26:33;;;;;;;2.15;0.95;;;;;;;16.18;46.74;98382.59;1749966;82;21116;-73
2021/06/03 06:29:00;;;;;;;0.78;0.70;;;;;;;16.21;46.72;98382.25;1748609;82;21094;-76
2021/06/03 06:31:27;;;;;;;1.02;0.72;;;;;;;16.42;49.17;98375.45;1747384;82;21531;-74
2021/06/03 06:33:55;;;;;;;0.70;0.70;;;;;;;16.51;48.02;98373.13;1747320;82;21533;-74
2021/06/03 06:36:24;;;;;;;2.30;0.70;;;;;;;16.58;47.16;98371.49;1747486;82;21542;-75
2021/06/03 06:38:51;;;;;;;3.95;0.90;;;;;;;16.72;48.11;98373.08;1747521;82;21211;-75
2021/06/03 06:41:17;;;;;;;1.07;0.62;;;;;;;16.90;48.47;98376.26;1747360;81;21109;-72
2021/06/03 06:43:44;;;;;;;1.75;0.90;;;;;;;17.02;46.16;98368.31;1747235;82;21109;-71
2021/06/03 06:46:11;;;;;;;2.47;1.00;;;;;;;17.15;48.53;98365.13;1747604;82;21085;-71
2021/06/03 06:48:38;;;;;;;1.60;0.53;;;;;;;17.27;48.71;98377.69;1747305;82;21046;-71
2021/06/03 06:51:06;;;;;;;4.00;0.80;;;;;;;17.38;48.15;98373.83;1747011;82;20994;-71
2021/06/03 06:53:33;;;;;;;1.55;1.05;;;;;;;17.36;45.59;98373.98;1745623;82;21114;-71
2021/06/03 06:56:00;;;;;;;1.12;0.82;;;;;;;17.38;46.96;98375.14;1745617;82;21038;-71
2021/06/03 06:58:28;;;;;;;1.60;0.88;;;;;;;17.50;47.51;98371.11;1734677;81;21038;-71
2021/06/03 07:00:56;;;;;;;1.25;0.80;;;;;;;17.63;46.13;98374.45;1741931;82;21110;-71
2021/06/03 07:03:23;;;;;;;3.45;0.80;;;;;;;17.78;47.12;98379.28;1742106;82;20990;-72
2021/06/03 07:05:50;;;;;;;0.95;0.68;;;;;;;17.93;46.53;98382.25;1742066;82;21084;-71
2021/06/03 07:08:18;;;;;;;2.27;0.75;;;;;;;18.08;43.92;98378.33;1742115;82;21034;-71
2021/06/03 07:10:46;;;;;;;1.32;0.90;;;;;;;18.16;46.32;98379.56;1741955;81;21109;-71
2021/06/03 07:13:12;;;;;;;2.67;0.85;;;;;;;18.26;46.07;98387.16;1741930;82;21046;-72
2021/06/03 07:15:40;;;;;;;2.15;0.57;;;;;;;18.36;46.08;98380.66;1742084;82;21007;-71
2021/06/03 07:18:08;;;;;;;1.35;0.68;;;;;;;18.47;46.02;98379.38;1741906;82;21084;-72
2021/06/03 07:20:35;;;;;;;1.20;0.72;;;;;;;18.58;45.11;98377.63;1741871;82;21157;-71
2021/06/03 07:23:06;;;;;;;1.47;1.00;;;;;;;18.66;45.12;98381.97;1741816;82;21007;-71
2021/06/03 07:25:37;;;;;;;1.85;1.02;;;;;;;18.74;44.89;98381.38;1741995;82;21081;-71
2021/06/03 07:28:05;;;;;;;1.62;0.90;;;;;;;18.68;40.71;98383.91;1741985;82;21022;-71
2021/06/03 07:30:33;;;;;;;1.12;0.93;;;;;;;18.70;42.00;98379.29;1746667;82;21010;-72
2021/06/03 07:33:03;;;;;;;1.32;0.72;;;;;;;18.71;43.08;98384.87;1746724;82;21046;-71
2021/06/03 07:35:33;;;;;;;1.35;0.85;;;;;;;18.75;44.86;98388.77;1746619;82;21045;-71
2021/06/03 07:38:00;;;;;;;3.02;1.00;;;;;;;18.61;41.39;98385.64;1746721;82;21097;-71
2021/06/03 07:40:29;;;;;;;1.35;1.00;;;;;;;18.69;41.05;98385.55;1746850;82;21507;-72
2021/06/03 07:42:57;;;;;;;3.10;1.10;;;;;;;18.65;41.81;98389.53;1747099;81;21123;-72
2021/06/03 07:45:28;;;;;;;1.30;0.70;;;;;;;18.75;41.47;98386.14;1746958;82;21478;-72
2021/06/03 07:47:56;;;;;;;1.22;0.60;;;;;;;18.92;43.89;98392.80;1746617;82;21723;-71
2021/06/03 07:50:27;;;;;;;5.50;0.98;;;;;;;19.00;41.88;98388.75;1746679;82;20994;-72
2021/06/03 07:52:54;;;;;;;1.02;0.72;;;;;;;19.16;42.24;98384.58;1746833;82;21530;-72
2021/06/03 07:55:21;;;;;;;1.02;0.57;;;;;;;19.30;42.53;98385.51;1746797;82;21034;-72
2021/06/03 07:57:53;;;;;;;0.98;0.72;;;;;;;19.41;43.53;98381.09;1746593;82;21022;-72
2021/06/03 08:00:23;;;;;;;1.10;0.78;;;;;;;19.52;43.71;98387.69;1746691;82;21007;-72
2021/06/03 08:02:50;;;;;;;1.35;0.93;;;;;;;19.57;42.26;98386.63;1746702;82;21074;-72
2021/06/03 08:05:20;;;;;;;0.93;0.80;;;;;;;19.53;41.79;98386.70;1746863;82;21022;-72
2021/06/03 08:07:49;;;;;;;1.52;0.78;;;;;;;19.63;40.70;98390.63;1746829;82;21074;-73
2021/06/03 08:10:24;;;;;;;1.35;0.70;;;;;;;19.71;40.33;98379.96;1746909;82;21514;-73
2021/06/03 08:12:52;;;;;;;2.08;0.62;;;;;;;19.83;42.51;98374.98;1746430;82;21031;-71
2021/06/03 08:15:20;;;;;;;2.15;0.75;;;;;;;19.97;43.39;98383.30;1746780;82;21022;-72
2021/06/03 08:17:47;;;;;;;0.80;0.70;;;;;;;20.08;43.46;98385.89;1746626;82;21057;-71
2021/06/03 08:20:23;;;;;;;1.00;0.70;;;;;;;20.16;39.51;98382.61;1725323;82;21800;-72
2021/06/03 08:22:51;;;;;;;1.80;0.80;;;;;;;20.33;38.14;98379.20;1746653;81;21534;-71
2021/06/03 08:25:18;;;;;;;1.17;0.80;;;;;;;20.47;37.87;98380.08;1746573;82;21038;-72
2021/06/03 08:27:46;;;;;;;1.12;0.80;;;;;;;20.48;37.18;98381.71;1746715;82;21734;-72
2021/06/03 08:30:17;;;;;;;1.45;0.80;;;;;;;20.72;41.08;98382.55;1746535;82;21081;-72
2021/06/03 08:32:48;;;;;;;0.80;0.65;;;;;;;20.91;41.66;98380.48;1746659;82;21673;-71
2021/06/03 08:35:18;;;;;;;0.93;0.75;;;;;;;21.00;38.57;98381.95;1747023;82;21066;-72
2021/06/03 08:37:52;;;;;;;1.15;0.57;;;;;;;21.09;40.18;98383.38;1746789;82;21018;-72
2021/06/03 08:40:24;;;;;;;1.87;1.12;;;;;;;20.95;36.80;98380.40;1746773;82;21066;-72
2021/06/03 08:42:55;;;;;;;0.85;0.65;;;;;;;20.98;39.94;98384.45;1746746;82;21006;-71
2021/06/03 08:45:25;;;;;;;2.12;1.32;;;;;;;21.05;37.08;98387.95;1746599;82;21054;-73
2021/06/03 08:47:53;;;;;;;3.15;0.82;;;;;;;21.13;35.95;98385.14;1746768;82;21014;-72
2021/06/03 08:50:23;;;;;;;1.57;0.80;;;;;;;21.28;38.14;98389.23;1746772;82;21159;-72
2021/06/03 08:52:52;;;;;;;1.27;0.82;;;;;;;21.18;35.72;98389.33;1746644;82;21006;-71
2021/06/03 08:58:08;;;;;;;1.90;0.93;;;;;;;21.36;37.45;98384.81;1746857;82;21499;-72
2021/06/03 09:00:37;;;;;;;1.17;0.80;;;;;;;21.59;38.02;98380.77;1746789;82;21184;-72
2021/06/03 09:03:04;;;;;;;1.50;0.88;;;;;;;21.92;37.01;98390.04;1746758;82;21073;-72
2021/06/03 09:05:31;;;;;;;1.17;0.70;;;;;;;22.10;36.88;98384.14;1746835;82;21030;-72
2021/06/03 09:07:58;;;;;;;1.40;0.93;;;;;;;22.22;33.64;98381.15;1746656;82;21035;-72
2021/06/03 09:10:32;;;;;;;1.20;0.85;;;;;;;22.36;36.79;98382.77;1725881;82;21137;-72
2021/06/03 09:13:16;;;;;;;1.92;1.27;;;;;;;21.57;34.34;98372.22;1746571;82;21038;-72
2021/06/03 09:15:51;;;;;;;1.52;0.80;;;;;;;21.93;34.56;98372.35;1746668;82;21502;-72
2021/06/03 09:18:29;;;;;;;1.45;0.85;;;;;;;22.35;36.68;98375.84;1746618;82;21038;-72
2021/06/03 09:20:58;;;;;;;1.27;0.80;;;;;;;22.59;36.10;98372.52;1746610;82;21038;-72
2021/06/03 09:23:33;;;;;;;2.75;0.80;;;;;;;22.79;36.21;98386.22;1745270;82;21513;-72
2021/06/03 09:26:10;;;;;;;1.20;0.90;;;;;;;22.84;35.28;98384.55;1746714;82;21073;-71
2021/06/03 09:28:46;;;;;;;1.00;0.90;;;;;;;22.95;32.95;98377.80;1746583;82;21002;-71
2021/06/03 09:31:23;;;;;;;0.80;0.80;;;;;;;22.69;33.28;98380.03;1746666;82;21108;-72
2021/06/03 09:34:04;;;;;;;4.53;1.27;;;;;;;22.78;32.68;98378.78;1746843;81;21037;-72
2021/06/03 09:36:47;;;;;;;1.72;1.07;;;;;;;22.79;32.55;98379.59;1746737;82;21124;-73
2021/06/03 09:39:40;;;;;;;1.15;0.85;;;;;;;23.12;32.55;98376.27;1746693;82;21230;-72
2021/06/03 09:42:15;;;;;;;2.33;0.90;;;;;;;23.52;33.19;98380.33;1746868;82;20999;-72
2021/06/03 09:44:50;;;;;;;1.12;0.85;;;;;;;23.61;32.51;98373.75;1746940;82;21042;-72
2021/06/03 09:47:19;;;;;;;0.78;0.78;;;;;;;23.50;31.03;98371.77;1746976;82;21050;-72
2021/06/03 09:49:55;;;;;;;1.02;0.80;;;;;;;23.57;34.56;98372.55;1746765;82;21015;-73
2021/06/03 09:52:28;;;;;;;3.85;0.85;;;;;;;23.68;34.19;98378.98;1746642;82;21007;-73
2021/06/03 09:54:58;;;;;;;0.85;0.70;;;;;;;23.59;31.41;98374.97;1746832;82;21078;-72
2021/06/03 09:57:34;;;;;;;2.47;0.88;;;;;;;23.62;33.65;98379.84;1746686;82;21025;-73
2021/06/03 10:00:11;;;;;;;0.80;0.80;;;;;;;23.62;33.82;98374.53;1746663;82;21092;-73
2021/06/03 10:02:44;;;;;;;1.32;0.98;;;;;;;23.65;32.59;98366.17;1746714;82;21129;-72
2021/06/03 10:05:15;;;;;;;1.47;0.98;;;;;;;23.52;31.43;98363.61;1746655;82;21585;-72
2021/06/03 10:08:01;;;;;;;1.35;1.00;;;;;;;23.65;31.36;98364.84;1746918;82;20999;-73
2021/06/03 10:10:32;;;;;;;2.10;1.50;;;;;;;23.74;32.89;98362.20;1746032;82;21130;-72
2021/06/03 10:13:06;;;;;;;1.25;0.82;;;;;;;22.94;31.17;98361.09;1746812;82;20999;-73
2021/06/03 10:15:37;;;;;;;1.30;1.00;;;;;;;22.61;31.61;98362.52;1746413;82;21029;-72
2021/06/03 10:18:16;;;;;;;1.98;0.72;;;;;;;22.96;32.19;98362.19;1746842;82;21541;-72
2021/06/03 10:20:49;;;;;;;1.20;0.80;;;;;;;23.42;33.37;98364.58;1746644;82;21038;-72
2021/06/03 10:23:28;;;;;;;1.00;0.85;;;;;;;23.66;30.78;98359.82;1746737;82;21138;-71
2021/06/03 10:26:01;;;;;;;0.60;0.60;;;;;;;23.84;30.64;98361.22;1746659;82;21100;-72
2021/06/03 10:28:29;;;;;;;1.47;0.80;;;;;;;23.96;31.90;98364.78;1746406;82;20967;-73
2021/06/03 10:31:02;;;;;;;1.12;0.80;;;;;;;23.87;29.74;98364.75;1742841;82;21218;-73
2021/06/03 10:33:31;;;;;;;1.32;0.60;;;;;;;24.31;33.66;98364.27;1742028;82;21097;-73
2021/06/03 10:36:08;;;;;;;1.20;0.90;;;;;;;24.72;29.00;98363.58;1741944;82;21101;-69
2021/06/03 10:38:36;;;;;;;1.67;0.80;;;;;;;25.15;29.36;98364.27;1741897;82;20999;-72
2021/06/03 10:41:07;;;;;;;2.40;0.80;;;;;;;25.64;29.00;98357.03;1741809;82;21124;-71
2021/06/03 10:43:37;;;;;;;0.75;0.75;;;;;;;26.09;27.97;98362.59;1742011;82;21050;-73
2021/06/03 10:46:06;;;;;;;1.35;0.90;;;;;;;26.02;27.25;98359.25;1742022;81;21045;-69
2021/06/03 10:48:32;;;;;;;1.25;0.80;;;;;;;26.45;29.66;98355.71;1741917;82;21546;-68
2021/06/03 10:51:04;;;;;;;1.95;0.88;;;;;;;26.59;27.31;98359.72;1742085;82;21470;-70
2021/06/03 10:53:31;;;;;;;2.05;1.20;;;;;;;26.70;26.51;98351.41;1741883;82;21034;-71
2021/06/03 10:56:21;;;;;;;3.27;1.10;;;;;;;26.80;25.66;98350.30;1741908;82;21019;-70
2021/06/03 10:58:49;;;;;;;0.85;0.70;;;;;;;27.15;24.69;98350.17;1741990;82;21006;-72
2021/06/03 11:01:20;;;;;;;1.57;0.50;;;;;;;27.49;25.58;98350.53;1741905;82;21030;-70
2021/06/03 11:03:54;;;;;;;1.07;0.55;;;;;;;27.92;24.83;98344.55;1741853;81;21002;-71
2021/06/03 11:06:24;;;;;;;1.82;0.60;;;;;;;28.29;26.17;98346.95;1741895;82;21118;-72
2021/06/03 11:09:03;;;;;;;2.95;0.90;;;;;;;28.47;27.79;98344.53;1741913;82;21030;-68
2021/06/03 11:11:40;;;;;;;1.17;0.80;;;;;;;28.44;23.15;98341.03;1741914;82;21082;-72
2021/06/03 11:14:17;;;;;;;1.05;0.70;;;;;;;28.54;24.52;98337.14;1741847;82;21023;-73
2021/06/03 11:16:54;;;;;;;1.92;0.70;;;;;;;28.51;23.24;98344.32;1741683;81;21030;-72
2021/06/03 11:19:34;;;;;;;0.62;0.50;;;;;;;29.20;24.70;98342.70;1741668;81;21550;-72
2021/06/03 11:22:05;;;;;;;2.75;0.88;;;;;;;29.61;25.88;98360.50;1741370;82;21010;-72
2021/06/03 11:24:39;;;;;;;2.57;0.50;;;;;;;29.20;21.82;98345.91;1741988;82;21523;-70
2021/06/03 11:27:15;;;;;;;1.82;0.80;;;;;;;29.99;25.28;98358.12;1742070;82;21030;-71
2021/06/03 11:29:54;;;;;;;0.80;0.60;;;;;;;29.30;22.80;98346.58;1742128;82;21495;-72
2021/06/03 11:32:32;;;;;;;1.12;0.72;;;;;;;29.95;20.95;98355.16;1744074;82;21526;-71
2021/06/03 11:35:02;;;;;;;0.90;0.70;;;;;;;29.00;21.65;98351.05;1743714;82;21046;-72
2021/06/03 11:37:41;;;;;;;0.75;0.50;;;;;;;29.48;21.39;98350.20;1744336;82;21574;-71
2021/06/03 11:40:16;;;;;;;0.50;0.50;;;;;;;30.24;22.52;98342.19;1744284;82;21013;-70
2021/06/03 11:42:48;;;;;;;0.90;0.60;;;;;;;30.87;21.73;98334.97;1744421;82;21162;-72
2021/06/03 11:45:23;;;;;;;0.60;0.50;;;;;;;31.29;22.16;98337.48;1741806;82;21022;-68
2021/06/03 11:47:56;;;;;;;0.90;0.45;;;;;;;31.52;19.71;98331.59;1725417;81;20986;-71
2021/06/03 11:50:28;;;;;;;1.67;0.72;;;;;;;31.85;19.77;98331.61;1718894;83;21224;-72